sensor_id;sensor_type;location;lat;lon;timestamp;pressure;altitude;pressure_sealevel;temperature;humidity
73422;BME280;61637;47.760;-122.022;2023-01-23T00:00:00;103284.89499999999;;;5.2;58.1
73422;BME280;61637;47.760;-122.022;2023-01-23T00:02:00;103284.89499999999;;;5.2;58.1
73422;BME280;61637;47.760;-122.022;2023-01-23T00:04:00;103284.89499999999;;;5.2;58.1
73422;BME280;61637;47.760;-122.022;2023-01-23T00:06:01;103284.89499999999;;;5.1;58.1
73422;BME280;61637;47.760;-122.022;2023-01-23T00:08:00;103284.89499999999;;;5.1;58.1
73422;BME280;61637;47.760;-122.022;2023-01-23T00:10:00;103284.89499999999;;;5.1;58.1
73422;BME280;61637;47.760;-122.022;2023-01-23T00:12:00;103284.89499999999;;;5.1;58.1
73422;BME280;61637;47.760;-122.022;2023-01-23T00:14:01;103284.89499999999;;;5.1;58.1
73422;BME280;61637;47.760;-122.022;2023-01-23T00:16:02;103284.89499999999;;;5.1;58.1
73422;BME280;61637;47.760;-122.022;2023-01-23T00:18:00;103284.89499999999;;;5.0;58.1
73422;BME280;61637;47.760;-122.022;2023-01-23T00:20:00;103284.89499999999;;;4.9;58.1
73422;BME280;61637;47.760;-122.022;2023-01-23T00:22:00;103284.89499999999;;;4.9;58.1
73422;BME280;61637;47.760;-122.022;2023-01-23T00:24:00;103284.89499999999;;;4.9;58.1
73422;BME280;61637;47.760;-122.022;2023-01-23T00:26:01;103284.89499999999;;;4.9;58.1
73422;BME280;61637;47.760;-122.022;2023-01-23T00:28:00;103284.89499999999;;;4.8;58.1
73422;BME280;61637;47.760;-122.022;2023-01-23T00:30:00;103284.89499999999;;;4.8;58.1
73422;BME280;61637;47.760;-122.022;2023-01-23T00:32:00;103284.89499999999;;;4.8;58.1
73422;BME280;61637;47.760;-122.022;2023-01-23T00:34:01;103284.89499999999;;;4.8;58.1
73422;BME280;61637;47.760;-122.022;2023-01-23T00:36:01;103284.89499999999;;;4.8;58.1
73422;BME280;61637;47.760;-122.022;2023-01-23T00:38:00;103284.89499999999;;;4.8;58.1
73422;BME280;61637;47.760;-122.022;2023-01-23T00:40:00;103284.89499999999;;;4.7;58.1
73422;BME280;61637;47.760;-122.022;2023-01-23T00:42:00;103284.89499999999;;;4.7;58.1
73422;BME280;61637;47.760;-122.022;2023-01-23T00:44:00;103284.89499999999;;;4.7;58.1
73422;BME280;61637;47.760;-122.022;2023-01-23T00:46:00;103284.89499999999;;;4.6;58.1
73422;BME280;61637;47.760;-122.022;2023-01-23T00:48:00;103284.89499999999;;;4.6;58.1
73422;BME280;61637;47.760;-122.022;2023-01-23T00:50:00;103284.89499999999;;;4.6;58.1
73422;BME280;61637;47.760;-122.022;2023-01-23T00:54:01;103284.89499999999;;;4.4;58.1
73422;BME280;61637;47.760;-122.022;2023-01-23T00:56:00;103284.89499999999;;;4.4;58.1
73422;BME280;61637;47.760;-122.022;2023-01-23T00:58:00;103284.89499999999;;;4.4;58.1
73422;BME280;61637;47.760;-122.022;2023-01-23T01:00:00;103284.89499999999;;;4.3;58.1
73422;BME280;61637;47.760;-122.022;2023-01-23T01:02:00;103284.89499999999;;;4.3;58.1
73422;BME280;61637;47.760;-122.022;2023-01-23T01:04:00;103284.89499999999;;;4.3;58.1
73422;BME280;61637;47.760;-122.022;2023-01-23T01:06:01;103284.89499999999;;;4.2;58.1
73422;BME280;61637;47.760;-122.022;2023-01-23T01:08:00;103284.89499999999;;;4.2;58.1
73422;BME280;61637;47.760;-122.022;2023-01-23T01:10:00;103284.89499999999;;;4.1;58.1
73422;BME280;61637;47.760;-122.022;2023-01-23T01:12:00;103284.89499999999;;;4.1;58.1
73422;BME280;61637;47.760;-122.022;2023-01-23T01:14:00;103284.89499999999;;;4.0;58.1
73422;BME280;61637;47.760;-122.022;2023-01-23T01:16:00;103284.89499999999;;;3.9;58.1
73422;BME280;61637;47.760;-122.022;2023-01-23T01:18:00;103284.89499999999;;;3.9;58.1
73422;BME280;61637;47.760;-122.022;2023-01-23T01:20:00;103284.89499999999;;;3.8;58.1
73422;BME280;61637;47.760;-122.022;2023-01-23T01:22:01;103284.89499999999;;;3.8;58.1
73422;BME280;61637;47.760;-122.022;2023-01-23T01:24:00;103284.89499999999;;;3.7;58.1
73422;BME280;61637;47.760;-122.022;2023-01-23T01:26:01;103284.89499999999;;;3.7;58.1
73422;BME280;61637;47.760;-122.022;2023-01-23T01:28:00;103284.89499999999;;;3.7;58.1
73422;BME280;61637;47.760;-122.022;2023-01-23T01:30:01;103284.89499999999;;;3.6;58.1
73422;BME280;61637;47.760;-122.022;2023-01-23T01:32:00;103284.89499999999;;;3.6;58.1
73422;BME280;61637;47.760;-122.022;2023-01-23T01:34:00;103284.89499999999;;;3.5;58.1
73422;BME280;61637;47.760;-122.022;2023-01-23T01:36:00;103284.89499999999;;;3.4;58.1
73422;BME280;61637;47.760;-122.022;2023-01-23T01:38:00;103284.89499999999;;;3.4;58.1
73422;BME280;61637;47.760;-122.022;2023-01-23T01:40:00;103284.89499999999;;;3.3;58.1
73422;BME280;61637;47.760;-122.022;2023-01-23T01:42:01;103284.89499999999;;;3.3;58.1
73422;BME280;61637;47.760;-122.022;2023-01-23T01:44:00;103284.89499999999;;;3.3;58.1
73422;BME280;61637;47.760;-122.022;2023-01-23T01:46:04;103284.89499999999;;;3.2;58.1
73422;BME280;61637;47.760;-122.022;2023-01-23T01:48:00;103284.89499999999;;;3.2;58.1
73422;BME280;61637;47.760;-122.022;2023-01-23T01:50:01;103284.89499999999;;;3.2;58.1
73422;BME280;61637;47.760;-122.022;2023-01-23T01:52:02;103284.89499999999;;;3.1;58.1
73422;BME280;61637;47.760;-122.022;2023-01-23T01:54:02;103284.89499999999;;;3.1;58.1
73422;BME280;61637;47.760;-122.022;2023-01-23T01:56:00;103284.89499999999;;;3.1;58.1
73422;BME280;61637;47.760;-122.022;2023-01-23T01:58:00;103284.89499999999;;;3.0;58.1
73422;BME280;61637;47.760;-122.022;2023-01-23T02:00:02;103284.89499999999;;;2.9;58.1
73422;BME280;61637;47.760;-122.022;2023-01-23T02:02:01;103284.89499999999;;;2.9;58.1
73422;BME280;61637;47.760;-122.022;2023-01-23T02:04:00;103284.89499999999;;;2.9;58.1
73422;BME280;61637;47.760;-122.022;2023-01-23T02:06:01;103284.89499999999;;;2.9;58.1
73422;BME280;61637;47.760;-122.022;2023-01-23T02:08:05;103284.89499999999;;;2.8;58.1
73422;BME280;61637;47.760;-122.022;2023-01-23T02:10:02;103284.89499999999;;;2.8;58.1
73422;BME280;61637;47.760;-122.022;2023-01-23T02:12:00;103284.89499999999;;;2.8;58.1
73422;BME280;61637;47.760;-122.022;2023-01-23T02:14:01;103284.89499999999;;;2.8;58.1
73422;BME280;61637;47.760;-122.022;2023-01-23T02:16:01;103284.89499999999;;;2.8;58.1
73422;BME280;61637;47.760;-122.022;2023-01-23T02:18:01;103284.89499999999;;;2.7;58.1
73422;BME280;61637;47.760;-122.022;2023-01-23T02:20:02;103284.89499999999;;;2.7;58.1
73422;BME280;61637;47.760;-122.022;2023-01-23T02:22:02;103284.89499999999;;;2.7;58.1
73422;BME280;61637;47.760;-122.022;2023-01-23T02:24:04;103284.89499999999;;;2.7;58.1
73422;BME280;61637;47.760;-122.022;2023-01-23T02:26:02;103284.89499999999;;;2.6;58.1
73422;BME280;61637;47.760;-122.022;2023-01-23T02:28:00;103284.89499999999;;;2.6;58.1
73422;BME280;61637;47.760;-122.022;2023-01-23T02:30:00;103284.89499999999;;;2.6;58.1
73422;BME280;61637;47.760;-122.022;2023-01-23T02:32:00;103284.89499999999;;;2.6;58.1
73422;BME280;61637;47.760;-122.022;2023-01-23T02:34:00;103284.89499999999;;;2.5;58.1
73422;BME280;61637;47.760;-122.022;2023-01-23T02:36:01;103284.89499999999;;;2.5;58.1
73422;BME280;61637;47.760;-122.022;2023-01-23T02:38:01;103284.89499999999;;;2.5;58.1
73422;BME280;61637;47.760;-122.022;2023-01-23T02:40:00;103284.89499999999;;;2.5;58.1
73422;BME280;61637;47.760;-122.022;2023-01-23T02:42:00;103284.89499999999;;;2.5;58.1
73422;BME280;61637;47.760;-122.022;2023-01-23T02:44:02;103284.89499999999;;;2.4;58.1
73422;BME280;61637;47.760;-122.022;2023-01-23T02:46:00;103284.89499999999;;;2.4;58.1
73422;BME280;61637;47.760;-122.022;2023-01-23T02:48:00;103284.89499999999;;;2.4;58.1
73422;BME280;61637;47.760;-122.022;2023-01-23T02:50:00;103284.89499999999;;;2.4;58.1
73422;BME280;61637;47.760;-122.022;2023-01-23T02:52:00;103284.89499999999;;;2.4;58.1
73422;BME280;61637;47.760;-122.022;2023-01-23T02:54:00;103284.89499999999;;;2.4;58.1
73422;BME280;61637;47.760;-122.022;2023-01-23T02:56:00;103284.89499999999;;;2.4;58.1
73422;BME280;61637;47.760;-122.022;2023-01-23T02:58:00;103284.89499999999;;;2.4;58.1
73422;BME280;61637;47.760;-122.022;2023-01-23T03:00:00;103284.89499999999;;;2.3;58.1
73422;BME280;61637;47.760;-122.022;2023-01-23T03:02:00;103284.89499999999;;;2.3;58.1
73422;BME280;61637;47.760;-122.022;2023-01-23T03:04:01;103284.89499999999;;;2.3;58.1
73422;BME280;61637;47.760;-122.022;2023-01-23T03:06:00;103284.89499999999;;;2.3;58.1
73422;BME280;61637;47.760;-122.022;2023-01-23T03:08:00;103284.89499999999;;;2.3;58.1
73422;BME280;61637;47.760;-122.022;2023-01-23T03:12:00;103284.89499999999;;;2.3;58.1
73422;BME280;61637;47.760;-122.022;2023-01-23T03:14:00;103284.89499999999;;;2.3;58.1
73422;BME280;61637;47.760;-122.022;2023-01-23T03:16:00;103284.89499999999;;;2.2;58.1
73422;BME280;61637;47.760;-122.022;2023-01-23T03:18:00;103284.89499999999;;;2.3;58.1
73422;BME280;61637;47.760;-122.022;2023-01-23T03:20:00;103284.89499999999;;;2.2;58.1
73422;BME280;61637;47.760;-122.022;2023-01-23T03:22:00;103284.89499999999;;;2.2;58.1
73422;BME280;61637;47.760;-122.022;2023-01-23T03:24:01;103284.89499999999;;;2.2;58.1
73422;BME280;61637;47.760;-122.022;2023-01-23T03:26:01;103284.89499999999;;;2.2;58.1
73422;BME280;61637;47.760;-122.022;2023-01-23T03:28:00;103284.89499999999;;;2.2;58.1
73422;BME280;61637;47.760;-122.022;2023-01-23T03:30:00;103284.89499999999;;;2.2;58.1
73422;BME280;61637;47.760;-122.022;2023-01-23T03:32:00;103284.89499999999;;;2.2;58.1
73422;BME280;61637;47.760;-122.022;2023-01-23T03:34:00;103284.89499999999;;;2.2;58.1
73422;BME280;61637;47.760;-122.022;2023-01-23T03:36:00;103284.89499999999;;;2.2;58.1
73422;BME280;61637;47.760;-122.022;2023-01-23T03:38:00;103284.89499999999;;;2.2;58.1
73422;BME280;61637;47.760;-122.022;2023-01-23T03:40:00;103284.89499999999;;;2.2;58.1
73422;BME280;61637;47.760;-122.022;2023-01-23T03:42:00;103284.89499999999;;;2.2;58.1
73422;BME280;61637;47.760;-122.022;2023-01-23T03:44:00;103284.89499999999;;;2.2;58.1
73422;BME280;61637;47.760;-122.022;2023-01-23T03:46:00;103284.89499999999;;;2.2;58.1
73422;BME280;61637;47.760;-122.022;2023-01-23T03:48:00;103284.89499999999;;;2.2;58.1
73422;BME280;61637;47.760;-122.022;2023-01-23T03:50:00;103284.89499999999;;;2.2;58.1
73422;BME280;61637;47.760;-122.022;2023-01-23T03:52:00;103284.89499999999;;;2.2;58.1
73422;BME280;61637;47.760;-122.022;2023-01-23T03:54:00;103284.89499999999;;;2.2;58.1
73422;BME280;61637;47.760;-122.022;2023-01-23T03:56:00;103284.89499999999;;;2.1;58.1
73422;BME280;61637;47.760;-122.022;2023-01-23T03:58:00;103284.89499999999;;;2.1;58.1
73422;BME280;61637;47.760;-122.022;2023-01-23T04:00:00;103284.89499999999;;;2.1;58.1
73422;BME280;61637;47.760;-122.022;2023-01-23T04:02:00;103284.89499999999;;;2.1;58.1
73422;BME280;61637;47.760;-122.022;2023-01-23T04:04:00;103284.89499999999;;;2.1;58.1
73422;BME280;61637;47.760;-122.022;2023-01-23T04:06:00;103284.89499999999;;;2.0;58.1
73422;BME280;61637;47.760;-122.022;2023-01-23T04:08:00;103284.89499999999;;;1.9;58.1
73422;BME280;61637;47.760;-122.022;2023-01-23T04:10:00;103284.89499999999;;;1.9;58.1
73422;BME280;61637;47.760;-122.022;2023-01-23T04:12:00;103284.89499999999;;;1.8;58.1
73422;BME280;61637;47.760;-122.022;2023-01-23T04:14:00;103284.89499999999;;;1.7;58.1
73422;BME280;61637;47.760;-122.022;2023-01-23T04:16:00;103284.89499999999;;;1.6;58.1
73422;BME280;61637;47.760;-122.022;2023-01-23T04:18:00;103284.89499999999;;;1.5;58.1
73422;BME280;61637;47.760;-122.022;2023-01-23T04:20:00;103284.89499999999;;;1.4;58.1
73422;BME280;61637;47.760;-122.022;2023-01-23T04:22:00;103284.89499999999;;;1.4;58.1
73422;BME280;61637;47.760;-122.022;2023-01-23T04:24:00;103284.89499999999;;;1.5;58.1
73422;BME280;61637;47.760;-122.022;2023-01-23T04:26:01;103284.89499999999;;;1.4;58.1
73422;BME280;61637;47.760;-122.022;2023-01-23T04:28:00;103284.89499999999;;;1.4;58.1
73422;BME280;61637;47.760;-122.022;2023-01-23T04:30:00;103284.89499999999;;;1.4;58.1
73422;BME280;61637;47.760;-122.022;2023-01-23T04:32:00;103284.89499999999;;;1.4;58.1
73422;BME280;61637;47.760;-122.022;2023-01-23T04:34:00;103284.89499999999;;;1.4;58.1
73422;BME280;61637;47.760;-122.022;2023-01-23T04:36:01;103284.89499999999;;;1.4;58.1
73422;BME280;61637;47.760;-122.022;2023-01-23T04:38:00;103284.89499999999;;;1.4;58.1
73422;BME280;61637;47.760;-122.022;2023-01-23T04:40:00;103284.89499999999;;;1.5;58.1
73422;BME280;61637;47.760;-122.022;2023-01-23T04:42:00;103284.89499999999;;;1.4;58.1
73422;BME280;61637;47.760;-122.022;2023-01-23T04:44:00;103284.89499999999;;;1.4;58.1
73422;BME280;61637;47.760;-122.022;2023-01-23T04:46:00;103284.89499999999;;;1.4;58.1
73422;BME280;61637;47.760;-122.022;2023-01-23T04:48:00;103284.89499999999;;;1.4;58.1
73422;BME280;61637;47.760;-122.022;2023-01-23T04:50:00;103284.89499999999;;;1.4;58.1
73422;BME280;61637;47.760;-122.022;2023-01-23T04:52:00;103284.89499999999;;;1.4;58.1
73422;BME280;61637;47.760;-122.022;2023-01-23T04:54:00;103284.89499999999;;;1.4;58.1
73422;BME280;61637;47.760;-122.022;2023-01-23T04:56:00;103284.89499999999;;;1.3;58.1
73422;BME280;61637;47.760;-122.022;2023-01-23T04:58:00;103284.89499999999;;;1.3;58.1
73422;BME280;61637;47.760;-122.022;2023-01-23T05:00:00;103284.89499999999;;;1.3;58.1
73422;BME280;61637;47.760;-122.022;2023-01-23T05:02:00;103284.89499999999;;;1.3;58.1
73422;BME280;61637;47.760;-122.022;2023-01-23T05:04:00;103284.89499999999;;;1.3;58.1
73422;BME280;61637;47.760;-122.022;2023-01-23T05:06:00;103284.89499999999;;;1.3;58.1
73422;BME280;61637;47.760;-122.022;2023-01-23T05:08:00;103284.89499999999;;;1.3;58.1
73422;BME280;61637;47.760;-122.022;2023-01-23T05:10:00;103284.89499999999;;;1.2;58.1
73422;BME280;61637;47.760;-122.022;2023-01-23T05:12:00;103284.89499999999;;;1.2;58.1
73422;BME280;61637;47.760;-122.022;2023-01-23T05:14:00;103284.89499999999;;;1.2;58.1
73422;BME280;61637;47.760;-122.022;2023-01-23T05:16:00;103284.89499999999;;;1.2;58.1
73422;BME280;61637;47.760;-122.022;2023-01-23T05:18:01;103284.89499999999;;;1.2;58.1
73422;BME280;61637;47.760;-122.022;2023-01-23T05:20:00;103284.89499999999;;;1.1;58.1
73422;BME280;61637;47.760;-122.022;2023-01-23T05:22:00;103284.89499999999;;;1.1;58.1
73422;BME280;61637;47.760;-122.022;2023-01-23T05:24:00;103284.89499999999;;;1.0;58.1
73422;BME280;61637;47.760;-122.022;2023-01-23T05:26:00;103284.89499999999;;;1.0;58.1
73422;BME280;61637;47.760;-122.022;2023-01-23T05:28:01;103284.89499999999;;;0.9;58.1
73422;BME280;61637;47.760;-122.022;2023-01-23T05:30:00;103284.89499999999;;;0.9;58.1
73422;BME280;61637;47.760;-122.022;2023-01-23T05:32:00;103284.89499999999;;;0.8;58.1
73422;BME280;61637;47.760;-122.022;2023-01-23T05:34:00;103284.89499999999;;;0.8;58.1
73422;BME280;61637;47.760;-122.022;2023-01-23T05:36:00;103284.89499999999;;;0.8;58.1
73422;BME280;61637;47.760;-122.022;2023-01-23T05:38:00;103284.89499999999;;;0.8;58.1
73422;BME280;61637;47.760;-122.022;2023-01-23T05:40:01;103284.89499999999;;;0.8;58.1
73422;BME280;61637;47.760;-122.022;2023-01-23T05:42:00;103284.89499999999;;;0.7;58.1
73422;BME280;61637;47.760;-122.022;2023-01-23T05:44:00;103284.89499999999;;;0.7;58.1
73422;BME280;61637;47.760;-122.022;2023-01-23T05:46:00;103284.89499999999;;;0.6;58.1
73422;BME280;61637;47.760;-122.022;2023-01-23T05:48:00;103284.89499999999;;;0.6;58.1
73422;BME280;61637;47.760;-122.022;2023-01-23T05:50:01;103284.89499999999;;;0.6;58.1
73422;BME280;61637;47.760;-122.022;2023-01-23T05:52:00;103284.89499999999;;;0.6;58.1
73422;BME280;61637;47.760;-122.022;2023-01-23T05:54:00;103284.89499999999;;;0.6;58.1
73422;BME280;61637;47.760;-122.022;2023-01-23T05:56:03;103284.89499999999;;;0.6;58.1
73422;BME280;61637;47.760;-122.022;2023-01-23T05:58:00;103284.89499999999;;;0.6;58.1
73422;BME280;61637;47.760;-122.022;2023-01-23T06:00:00;103284.89499999999;;;0.6;58.1
73422;BME280;61637;47.760;-122.022;2023-01-23T06:02:00;103284.89499999999;;;0.7;58.1
73422;BME280;61637;47.760;-122.022;2023-01-23T06:04:00;103284.89499999999;;;0.7;58.1
73422;BME280;61637;47.760;-122.022;2023-01-23T06:06:00;103284.89499999999;;;0.7;58.1
73422;BME280;61637;47.760;-122.022;2023-01-23T06:08:00;103284.89499999999;;;0.8;58.1
73422;BME280;61637;47.760;-122.022;2023-01-23T06:10:00;103284.89499999999;;;0.8;58.1
73422;BME280;61637;47.760;-122.022;2023-01-23T06:12:00;103284.89499999999;;;0.8;58.1
73422;BME280;61637;47.760;-122.022;2023-01-23T06:14:01;103284.89499999999;;;0.8;58.1
73422;BME280;61637;47.760;-122.022;2023-01-23T06:16:01;103284.89499999999;;;0.9;58.1
73422;BME280;61637;47.760;-122.022;2023-01-23T06:18:00;103284.89499999999;;;0.9;58.1
73422;BME280;61637;47.760;-122.022;2023-01-23T06:20:00;103284.89499999999;;;0.9;58.1
73422;BME280;61637;47.760;-122.022;2023-01-23T06:22:00;103284.89499999999;;;0.9;58.1
73422;BME280;61637;47.760;-122.022;2023-01-23T06:24:00;103284.89499999999;;;0.9;58.1
73422;BME280;61637;47.760;-122.022;2023-01-23T06:26:01;103284.89499999999;;;0.9;58.1
73422;BME280;61637;47.760;-122.022;2023-01-23T06:28:00;103284.89499999999;;;0.9;58.1
73422;BME280;61637;47.760;-122.022;2023-01-23T06:30:00;103284.89499999999;;;0.9;58.1
73422;BME280;61637;47.760;-122.022;2023-01-23T06:32:00;103284.89499999999;;;0.9;58.1
73422;BME280;61637;47.760;-122.022;2023-01-23T06:34:00;103284.89499999999;;;0.9;58.1
73422;BME280;61637;47.760;-122.022;2023-01-23T06:36:02;103284.89499999999;;;0.9;58.1
73422;BME280;61637;47.760;-122.022;2023-01-23T06:38:00;103284.89499999999;;;0.9;58.1
73422;BME280;61637;47.760;-122.022;2023-01-23T06:40:00;103284.89499999999;;;0.9;58.1
73422;BME280;61637;47.760;-122.022;2023-01-23T06:42:00;103284.89499999999;;;0.8;58.1
73422;BME280;61637;47.760;-122.022;2023-01-23T06:44:00;103284.89499999999;;;0.9;58.1
73422;BME280;61637;47.760;-122.022;2023-01-23T06:46:00;103284.89499999999;;;0.9;58.1
73422;BME280;61637;47.760;-122.022;2023-01-23T06:48:00;103284.89499999999;;;0.8;58.1
73422;BME280;61637;47.760;-122.022;2023-01-23T06:50:01;103284.89499999999;;;0.8;58.1
73422;BME280;61637;47.760;-122.022;2023-01-23T06:52:00;103284.89499999999;;;0.8;58.1
73422;BME280;61637;47.760;-122.022;2023-01-23T06:54:00;103284.89499999999;;;0.8;58.1
73422;BME280;61637;47.760;-122.022;2023-01-23T06:56:01;103284.89499999999;;;0.8;58.1
73422;BME280;61637;47.760;-122.022;2023-01-23T06:58:00;103284.89499999999;;;0.8;58.1
73422;BME280;61637;47.760;-122.022;2023-01-23T07:00:00;103284.89499999999;;;0.8;58.1
73422;BME280;61637;47.760;-122.022;2023-01-23T07:02:01;103284.89499999999;;;0.8;58.1
73422;BME280;61637;47.760;-122.022;2023-01-23T07:04:00;103284.89499999999;;;0.8;58.1
73422;BME280;61637;47.760;-122.022;2023-01-23T07:06:01;103284.89499999999;;;0.8;58.1
73422;BME280;61637;47.760;-122.022;2023-01-23T07:08:00;103284.89499999999;;;0.8;58.1
73422;BME280;61637;47.760;-122.022;2023-01-23T07:10:00;103284.89499999999;;;0.8;58.1
73422;BME280;61637;47.760;-122.022;2023-01-23T07:12:00;103284.89499999999;;;0.9;58.1
73422;BME280;61637;47.760;-122.022;2023-01-23T07:14:00;103284.89499999999;;;0.9;58.1
73422;BME280;61637;47.760;-122.022;2023-01-23T07:16:00;103284.89499999999;;;0.9;58.1
73422;BME280;61637;47.760;-122.022;2023-01-23T07:18:00;103284.89499999999;;;0.9;58.1
73422;BME280;61637;47.760;-122.022;2023-01-23T07:20:00;103284.89499999999;;;0.9;58.1
73422;BME280;61637;47.760;-122.022;2023-01-23T07:22:00;103284.89499999999;;;1.0;58.1
73422;BME280;61637;47.760;-122.022;2023-01-23T07:24:01;103284.89499999999;;;1.0;58.1
73422;BME280;61637;47.760;-122.022;2023-01-23T07:26:01;103284.89499999999;;;1.1;58.1
73422;BME280;61637;47.760;-122.022;2023-01-23T07:28:01;103284.89499999999;;;1.1;58.1
73422;BME280;61637;47.760;-122.022;2023-01-23T07:30:00;103284.89499999999;;;1.1;58.1
73422;BME280;61637;47.760;-122.022;2023-01-23T07:32:00;103284.89499999999;;;1.1;58.1
73422;BME280;61637;47.760;-122.022;2023-01-23T07:34:00;103284.89499999999;;;1.1;58.1
73422;BME280;61637;47.760;-122.022;2023-01-23T07:36:03;103284.89499999999;;;1.1;58.1
73422;BME280;61637;47.760;-122.022;2023-01-23T07:38:00;103284.89499999999;;;1.1;58.1
73422;BME280;61637;47.760;-122.022;2023-01-23T07:40:00;103284.89499999999;;;1.1;58.1
73422;BME280;61637;47.760;-122.022;2023-01-23T07:42:00;103284.89499999999;;;1.1;58.1
73422;BME280;61637;47.760;-122.022;2023-01-23T07:44:00;103284.89499999999;;;1.1;58.1
73422;BME280;61637;47.760;-122.022;2023-01-23T07:46:00;103284.89499999999;;;1.1;58.1
73422;BME280;61637;47.760;-122.022;2023-01-23T07:48:00;103284.89499999999;;;1.1;58.1
73422;BME280;61637;47.760;-122.022;2023-01-23T07:50:00;103284.89499999999;;;1.0;unavailable
73422;BME280;61637;47.760;-122.022;2023-01-23T07:52:00;103284.89499999999;;;0.9;unknown
73422;BME280;61637;47.760;-122.022;2023-01-23T07:54:00;103284.89499999999;;;0.9;unknown
73422;BME280;61637;47.760;-122.022;2023-01-23T07:56:03;103284.89499999999;;;0.9;unknown
73422;BME280;61637;47.760;-122.022;2023-01-23T07:58:00;103284.89499999999;;;0.9;unknown
73422;BME280;61637;47.760;-122.022;2023-01-23T08:00:00;103284.89499999999;;;0.9;unknown
73422;BME280;61637;47.760;-122.022;2023-01-23T08:02:00;103284.89499999999;;;0.9;unknown
73422;BME280;61637;47.760;-122.022;2023-01-23T08:04:00;103284.89499999999;;;0.9;unknown
73422;BME280;61637;47.760;-122.022;2023-01-23T08:06:00;103284.89499999999;;;0.9;unknown
73422;BME280;61637;47.760;-122.022;2023-01-23T08:08:00;103284.89499999999;;;0.9;unknown
73422;BME280;61637;47.760;-122.022;2023-01-23T08:10:00;103284.89499999999;;;0.8;unknown
73422;BME280;61637;47.760;-122.022;2023-01-23T08:12:00;103284.89499999999;;;0.8;unknown
73422;BME280;61637;47.760;-122.022;2023-01-23T08:14:00;103284.89499999999;;;0.8;unknown
73422;BME280;61637;47.760;-122.022;2023-01-23T08:16:01;103284.89499999999;;;0.8;unknown
73422;BME280;61637;47.760;-122.022;2023-01-23T08:18:00;103284.89499999999;;;0.8;unknown
73422;BME280;61637;47.760;-122.022;2023-01-23T08:20:00;103284.89499999999;;;0.8;unknown
73422;BME280;61637;47.760;-122.022;2023-01-23T08:22:00;103284.89499999999;;;0.8;unknown
73422;BME280;61637;47.760;-122.022;2023-01-23T08:24:00;103284.89499999999;;;0.8;unknown
73422;BME280;61637;47.760;-122.022;2023-01-23T08:26:01;103284.89499999999;;;0.8;unknown
73422;BME280;61637;47.760;-122.022;2023-01-23T08:28:00;103284.89499999999;;;0.7;unknown
73422;BME280;61637;47.760;-122.022;2023-01-23T08:30:00;103284.89499999999;;;0.8;unknown
73422;BME280;61637;47.760;-122.022;2023-01-23T08:32:00;103284.89499999999;;;0.7;unknown
73422;BME280;61637;47.760;-122.022;2023-01-23T08:34:00;103284.89499999999;;;0.8;unknown
73422;BME280;61637;47.760;-122.022;2023-01-23T08:36:00;103284.89499999999;;;0.8;unknown
73422;BME280;61637;47.760;-122.022;2023-01-23T08:38:00;103284.89499999999;;;0.8;unknown
73422;BME280;61637;47.760;-122.022;2023-01-23T08:40:00;103284.89499999999;;;0.8;unknown
73422;BME280;61637;47.760;-122.022;2023-01-23T08:42:00;103284.89499999999;;;0.8;unknown
73422;BME280;61637;47.760;-122.022;2023-01-23T08:44:00;103284.89499999999;;;0.8;unknown
73422;BME280;61637;47.760;-122.022;2023-01-23T08:46:00;103284.89499999999;;;0.8;unknown
73422;BME280;61637;47.760;-122.022;2023-01-23T08:48:00;103284.89499999999;;;0.9;unknown
73422;BME280;61637;47.760;-122.022;2023-01-23T08:50:01;103284.89499999999;;;0.9;unknown
73422;BME280;61637;47.760;-122.022;2023-01-23T08:52:00;103284.89499999999;;;0.9;unknown
73422;BME280;61637;47.760;-122.022;2023-01-23T08:54:00;103284.89499999999;;;0.9;unknown
73422;BME280;61637;47.760;-122.022;2023-01-23T08:56:01;103284.89499999999;;;0.9;unknown
73422;BME280;61637;47.760;-122.022;2023-01-23T08:58:00;103284.89499999999;;;1.0;unknown
73422;BME280;61637;47.760;-122.022;2023-01-23T09:00:00;103284.89499999999;;;1.0;unknown
73422;BME280;61637;47.760;-122.022;2023-01-23T09:02:01;103284.89499999999;;;1.1;unknown
73422;BME280;61637;47.760;-122.022;2023-01-23T09:04:00;103284.89499999999;;;1.0;unknown
73422;BME280;61637;47.760;-122.022;2023-01-23T09:06:00;103284.89499999999;;;0.9;unknown
73422;BME280;61637;47.760;-122.022;2023-01-23T09:08:00;103284.89499999999;;;1.0;unknown
73422;BME280;61637;47.760;-122.022;2023-01-23T09:10:00;103284.89499999999;;;1.0;unknown
73422;BME280;61637;47.760;-122.022;2023-01-23T09:12:00;103284.89499999999;;;1.0;unknown
73422;BME280;61637;47.760;-122.022;2023-01-23T09:14:00;103284.89499999999;;;1.1;unknown
73422;BME280;61637;47.760;-122.022;2023-01-23T09:16:00;103284.89499999999;;;1.1;unknown
73422;BME280;61637;47.760;-122.022;2023-01-23T09:18:00;103284.89499999999;;;1.1;unknown
73422;BME280;61637;47.760;-122.022;2023-01-23T09:20:00;103284.89499999999;;;1.1;unknown